Time;durP1;ratioP1;P1;durP2;ratioP2;P2;SDS_P1;SDS_P2;PMS_P1;PMS_P2;Temp;Humidity;BMP_temperature;BMP_pressure;BME280_temperature;BME280_humidity;BME280_pressure;Samples;Min_cycle;Max_cycle;Signal;HPM_P1;HPM_P2
2022/12/02 00:00:50;;;;;;;;;;;0.90;99.90;;;;;;5069899;28;19952;-67
2022/12/02 00:03:17;;;;;;;;;;;0.80;99.90;;;;;;5070160;28;19916;-67
2022/12/02 00:05:43;;;;;;;;;;;0.80;99.90;;;;;;5052244;28;19908;-67
2022/12/02 00:08:21;;;;;;;;;;;0.80;99.90;;;;;;5074350;28;19998;-66
2022/12/02 00:10:46;;;;;;;;;;;0.70;99.90;;;;;;5075414;28;19912;-66
2022/12/02 00:13:20;;;;;;;;;;;0.70;99.90;;;;;;5070439;28;19953;-65
2022/12/02 00:15:48;;;;;;;;;;;0.70;99.90;;;;;;5061701;28;19912;-66
2022/12/02 00:18:14;;;;;;;;;;;0.60;99.90;;;;;;5069974;28;20360;-67
2022/12/02 00:20:40;;;;;;;;;;;0.60;99.90;;;;;;5062401;28;19908;-66
2022/12/02 00:23:06;;;;;;;;;;;0.60;99.90;;;;;;5070033;28;20364;-67
2022/12/02 00:25:32;;;;;;;;;;;0.60;99.90;;;;;;5071482;28;19929;-67
2022/12/02 00:27:58;;;;;;;;;;;0.60;99.90;;;;;;5069112;28;19999;-67
2022/12/02 00:30:23;;;;;;;;;;;0.50;99.90;;;;;;5074656;28;19959;-67
2022/12/02 00:32:49;;;;;;;;;;;0.60;99.90;;;;;;5070980;28;19938;-67
2022/12/02 00:35:14;;;;;;;;;;;0.60;99.90;;;;;;5069059;28;19916;-67
2022/12/02 00:37:40;;;;;;;;;;;0.60;99.90;;;;;;5074649;28;19908;-66
2022/12/02 00:40:06;;;;;;;;;;;0.60;99.90;;;;;;5069682;28;19909;-67
2022/12/02 00:42:31;;;;;;;;;;;0.60;99.90;;;;;;5069074;28;19936;-67
2022/12/02 00:47:41;;;;;;;;;;;0.60;99.90;;;;;;5064640;28;20279;-67
2022/12/02 00:50:06;;;;;;;;;;;0.60;99.90;;;;;;5069347;28;19912;-66
2022/12/02 00:52:32;;;;;;;;;;;0.50;99.90;;;;;;5068990;28;19912;-66
2022/12/02 00:54:57;;;;;;;;;;;0.50;99.90;;;;;;5075117;28;20283;-67
2022/12/02 00:57:23;;;;;;;;;;;0.50;99.90;;;;;;5073056;28;19912;-66
2022/12/02 00:59:48;;;;;;;;;;;0.50;99.90;;;;;;5073603;28;19904;-66
2022/12/02 01:02:14;;;;;;;;;;;0.50;99.90;;;;;;5076532;28;19917;-67
2022/12/02 01:04:39;;;;;;;;;;;0.50;99.90;;;;;;5069285;28;20417;-67
2022/12/02 01:07:05;;;;;;;;;;;0.60;99.90;;;;;;5052780;28;19909;-67
2022/12/02 01:09:30;;;;;;;;;;;0.60;99.90;;;;;;5064295;28;20007;-67
2022/12/02 01:11:55;;;;;;;;;;;0.60;99.90;;;;;;5051304;28;20372;-67
2022/12/02 01:14:21;;;;;;;;;;;0.60;99.90;;;;;;5073087;28;20270;-67
2022/12/02 01:16:46;;;;;;;;;;;0.60;99.90;;;;;;5074202;28;19958;-67
2022/12/02 01:19:12;;;;;;;;;;;0.60;99.90;;;;;;5074141;28;19905;-67
2022/12/02 01:21:37;;;;;;;;;;;0.60;99.90;;;;;;5078041;28;19908;-67
2022/12/02 01:24:03;;;;;;;;;;;0.60;99.90;;;;;;5072765;28;19909;-66
2022/12/02 01:26:28;;;;;;;;;;;0.60;99.90;;;;;;5075052;28;19961;-67
2022/12/02 01:28:54;;;;;;;;;;;0.60;99.90;;;;;;5072817;28;19912;-67
2022/12/02 01:31:19;;;;;;;;;;;0.60;99.90;;;;;;5076520;28;19912;-66
2022/12/02 01:33:45;;;;;;;;;;;0.60;99.90;;;;;;5078597;28;20026;-66
2022/12/02 01:36:10;;;;;;;;;;;0.50;99.90;;;;;;5074596;28;20390;-66
2022/12/02 01:38:36;;;;;;;;;;;0.50;99.90;;;;;;5072373;28;19915;-66
2022/12/02 01:41:01;;;;;;;;;;;0.40;99.90;;;;;;5057773;28;19909;-67
2022/12/02 01:43:27;;;;;;;;;;;0.50;99.90;;;;;;5072143;28;20268;-67
2022/12/02 01:45:52;;;;;;;;;;;0.50;99.90;;;;;;5072541;28;19915;-67
2022/12/02 01:48:18;;;;;;;;;;;0.50;99.90;;;;;;5072271;28;19905;-67
2022/12/02 01:50:44;;;;;;;;;;;0.60;99.90;;;;;;5072353;28;19993;-67
2022/12/02 01:53:09;;;;;;;;;;;0.60;99.90;;;;;;5079366;28;19923;-67
2022/12/02 01:55:35;;;;;;;;;;;0.50;99.90;;;;;;5074587;28;19915;-67
2022/12/02 01:58:00;;;;;;;;;;;0.50;99.90;;;;;;5070611;28;20013;-67
2022/12/02 02:00:26;;;;;;;;;;;0.40;99.90;;;;;;5070149;28;19924;-67
2022/12/02 02:02:52;;;;;;;;;;;0.40;99.90;;;;;;5071110;28;20311;-67
2022/12/02 02:05:22;;;;;;;;;;;0.40;99.90;;;;;;5073304;28;19966;-67
2022/12/02 02:07:50;;;;;;;;;;;0.40;99.90;;;;;;5072429;28;20372;-67
2022/12/02 02:10:16;;;;;;;;;;;0.40;99.90;;;;;;5071431;28;20350;-67
2022/12/02 02:12:42;;;;;;;;;;;0.40;99.90;;;;;;5072176;28;20003;-67
2022/12/02 02:15:09;;;;;;;;;;;0.30;99.90;;;;;;5079601;28;19908;-67
2022/12/02 02:17:35;;;;;;;;;;;0.30;99.90;;;;;;5063871;28;19915;-66
2022/12/02 02:20:01;;;;;;;;;;;0.30;99.90;;;;;;5072273;28;20275;-67
2022/12/02 02:22:35;;;;;;;;;;;0.40;99.90;;;;;;5074625;28;20376;-67
2022/12/02 02:25:00;;;;;;;;;;;0.40;99.90;;;;;;5072626;28;19904;-67
2022/12/02 02:27:26;;;;;;;;;;;0.30;99.90;;;;;;5075296;28;20349;-67
2022/12/02 02:29:52;;;;;;;;;;;0.30;99.90;;;;;;5071902;28;19939;-67
2022/12/02 02:32:17;;;;;;;;;;;0.30;99.90;;;;;;5073440;28;19934;-67
2022/12/02 02:34:43;;;;;;;;;;;0.30;99.90;;;;;;5065033;28;19908;-67
2022/12/02 02:37:08;;;;;;;;;;;0.20;99.90;;;;;;5071741;28;20253;-67
2022/12/02 02:39:34;;;;;;;;;;;0.20;99.90;;;;;;5071726;28;20273;-68
2022/12/02 02:41:59;;;;;;;;;;;0.20;99.90;;;;;;5071799;28;19916;-67
2022/12/02 02:44:27;;;;;;;;;;;0.20;99.90;;;;;;5071784;28;19977;-67
2022/12/02 02:46:53;;;;;;;;;;;0.20;99.90;;;;;;5064786;28;20280;-68
2022/12/02 02:49:18;;;;;;;;;;;0.20;99.90;;;;;;5071601;28;19915;-68
2022/12/02 02:51:44;;;;;;;;;;;0.10;99.90;;;;;;5070487;28;19904;-66
2022/12/02 02:54:09;;;;;;;;;;;0.10;99.90;;;;;;5071493;28;19908;-68
2022/12/02 02:56:35;;;;;;;;;;;0.20;99.90;;;;;;5061596;28;19964;-67
2022/12/02 02:59:01;;;;;;;;;;;0.10;99.90;;;;;;5071475;28;19904;-68
2022/12/02 03:01:28;;;;;;;;;;;0.10;99.90;;;;;;5061868;28;20338;-68
2022/12/02 03:03:55;;;;;;;;;;;0.10;99.90;;;;;;5071511;28;19908;-68
2022/12/02 03:06:21;;;;;;;;;;;0.20;99.90;;;;;;5073165;28;19908;-68
2022/12/02 03:08:47;;;;;;;;;;;0.20;99.90;;;;;;5071309;28;19943;-68
2022/12/02 03:11:13;;;;;;;;;;;0.20;99.90;;;;;;5071112;28;19954;-69
2022/12/02 03:13:39;;;;;;;;;;;0.20;99.90;;;;;;5072372;28;19912;-69
2022/12/02 03:16:06;;;;;;;;;;;0.20;99.90;;;;;;5075130;28;20367;-69
2022/12/02 03:18:32;;;;;;;;;;;0.10;99.90;;;;;;5076666;28;19961;-70
2022/12/02 03:20:58;;;;;;;;;;;0.10;99.90;;;;;;5071264;28;19912;-69
2022/12/02 03:23:23;;;;;;;;;;;0.10;99.90;;;;;;5068583;28;20399;-69
2022/12/02 03:25:49;;;;;;;;;;;0.00;99.90;;;;;;5071956;28;20454;-70
2022/12/02 03:28:15;;;;;;;;;;;0.00;99.90;;;;;;5071657;28;19908;-69
2022/12/02 03:30:40;;;;;;;;;;;0.00;99.90;;;;;;5072446;28;20058;-69
2022/12/02 03:33:06;;;;;;;;;;;0.00;99.90;;;;;;5075867;28;20398;-70
2022/12/02 03:35:32;;;;;;;;;;;0.00;99.90;;;;;;5073509;28;20376;-68
2022/12/02 03:37:57;;;;;;;;;;;0.00;99.90;;;;;;5070927;28;20173;-68
2022/12/02 03:40:23;;;;;;;;;;;0.00;99.90;;;;;;5074956;28;19908;-72
2022/12/02 03:42:49;;;;;;;;;;;-0.10;99.90;;;;;;5070118;28;19931;-69
2022/12/02 03:45:14;;;;;;;;;;;-0.10;99.90;;;;;;5079385;28;20003;-69
2022/12/02 03:47:40;;;;;;;;;;;0.00;99.90;;;;;;5071637;28;19977;-69
2022/12/02 03:50:06;;;;;;;;;;;-0.10;99.90;;;;;;5070313;28;20291;-69
2022/12/02 03:52:31;;;;;;;;;;;-0.10;99.90;;;;;;5069834;28;19916;-69
2022/12/02 03:54:57;;;;;;;;;;;-0.10;99.90;;;;;;5070409;28;19912;-69
2022/12/02 03:57:23;;;;;;;;;;;0.00;99.90;;;;;;5069728;28;20309;-69
2022/12/02 03:59:48;;;;;;;;;;;0.00;99.90;;;;;;5067225;28;20342;-68
2022/12/02 04:02:14;;;;;;;;;;;-0.10;99.90;;;;;;5077955;28;19916;-69
2022/12/02 04:04:39;;;;;;;;;;;0.00;99.90;;;;;;5069917;28;19938;-68
2022/12/02 04:07:05;;;;;;;;;;;0.00;99.90;;;;;;5084738;28;19911;-68
2022/12/02 04:09:30;;;;;;;;;;;0.00;99.90;;;;;;5065130;28;19908;-67
2022/12/02 04:11:56;;;;;;;;;;;0.00;99.90;;;;;;5068972;28;19916;-68
2022/12/02 04:14:21;;;;;;;;;;;0.00;99.90;;;;;;5050435;28;20261;-68
2022/12/02 04:16:46;;;;;;;;;;;-0.10;99.90;;;;;;5069238;28;19947;-67
2022/12/02 04:19:14;;;;;;;;;;;-0.10;99.90;;;;;;5069450;28;19915;-68
2022/12/02 04:21:39;;;;;;;;;;;-0.10;99.90;;;;;;5059975;28;19912;-67
2022/12/02 04:24:05;;;;;;;;;;;-0.10;99.90;;;;;;5069261;28;20004;-67
2022/12/02 04:26:31;;;;;;;;;;;-0.10;99.90;;;;;;5068842;28;19908;-66
2022/12/02 04:28:56;;;;;;;;;;;0.00;99.90;;;;;;5068581;28;20433;-67
2022/12/02 04:31:21;;;;;;;;;;;0.00;99.90;;;;;;5069927;28;19916;-68
2022/12/02 04:33:47;;;;;;;;;;;-0.10;99.90;;;;;;5073589;28;20327;-66
2022/12/02 04:36:12;;;;;;;;;;;-0.10;99.90;;;;;;5068713;28;19927;-67
2022/12/02 04:38:38;;;;;;;;;;;0.00;99.90;;;;;;5061692;28;19934;-67
2022/12/02 04:41:03;;;;;;;;;;;0.00;99.90;;;;;;5068867;28;20201;-67
2022/12/02 04:43:29;;;;;;;;;;;0.00;99.90;;;;;;5068750;28;19908;-66
2022/12/02 04:45:54;;;;;;;;;;;0.00;99.90;;;;;;5068621;28;19904;-67
2022/12/02 04:48:20;;;;;;;;;;;0.00;99.90;;;;;;5068708;28;19908;-67
2022/12/02 04:50:45;;;;;;;;;;;0.00;99.90;;;;;;5068644;28;19904;-68
2022/12/02 04:53:10;;;;;;;;;;;0.00;99.90;;;;;;5068049;28;19955;-67
2022/12/02 04:55:36;;;;;;;;;;;0.00;99.90;;;;;;5068429;28;20424;-67
2022/12/02 04:58:01;;;;;;;;;;;0.00;99.90;;;;;;5058895;28;19939;-66
2022/12/02 05:00:27;;;;;;;;;;;0.00;99.90;;;;;;5068727;28;19908;-67
2022/12/02 05:02:52;;;;;;;;;;;0.00;99.90;;;;;;5068681;28;20271;-68
2022/12/02 05:05:18;;;;;;;;;;;0.00;99.90;;;;;;5068650;28;19958;-67
2022/12/02 05:07:43;;;;;;;;;;;0.00;99.90;;;;;;5068636;28;19908;-67
2022/12/02 05:10:09;;;;;;;;;;;0.00;99.90;;;;;;5074319;28;20359;-66
2022/12/02 05:12:34;;;;;;;;;;;0.10;99.90;;;;;;5072179;28;19916;-67
2022/12/02 05:15:00;;;;;;;;;;;0.00;99.90;;;;;;5069065;28;19954;-67
2022/12/02 05:17:25;;;;;;;;;;;0.00;99.90;;;;;;5064737;28;19908;-67
2022/12/02 05:19:51;;;;;;;;;;;0.00;99.90;;;;;;5068543;28;19993;-67
2022/12/02 05:22:16;;;;;;;;;;;0.00;99.90;;;;;;5069038;28;19912;-68
2022/12/02 05:24:42;;;;;;;;;;;0.00;99.90;;;;;;5068566;28;19904;-68
2022/12/02 05:27:07;;;;;;;;;;;0.00;99.90;;;;;;5069582;28;19957;-68
2022/12/02 05:29:33;;;;;;;;;;;0.00;99.90;;;;;;5068484;28;19987;-68
2022/12/02 05:31:58;;;;;;;;;;;0.00;99.90;;;;;;5059677;28;19931;-69
2022/12/02 05:34:23;;;;;;;;;;;0.00;99.90;;;;;;5058643;28;19908;-68
2022/12/02 05:36:49;;;;;;;;;;;0.00;99.90;;;;;;5073745;28;19913;-69
2022/12/02 05:39:14;;;;;;;;;;;0.00;99.90;;;;;;5068375;28;20570;-69
2022/12/02 05:41:40;;;;;;;;;;;0.00;99.90;;;;;;5053623;28;19931;-68
2022/12/02 05:44:17;;;;;;;;;;;0.00;99.90;;;;;;5068544;28;19908;-67
2022/12/02 05:46:42;;;;;;;;;;;0.00;99.90;;;;;;5059912;28;20435;-68
2022/12/02 05:49:11;;;;;;;;;;;0.00;99.90;;;;;;5069540;28;20002;-68
2022/12/02 05:51:37;;;;;;;;;;;0.00;99.90;;;;;;5068854;28;20464;-69
2022/12/02 05:54:05;;;;;;;;;;;0.00;99.90;;;;;;5068180;28;19940;-69
2022/12/02 05:56:30;;;;;;;;;;;0.00;99.90;;;;;;5068432;28;19928;-70
2022/12/02 05:59:00;;;;;;;;;;;0.00;99.90;;;;;;5070116;28;19915;-69
2022/12/02 06:01:34;;;;;;;;;;;0.00;99.90;;;;;;5074807;28;19991;-69
2022/12/02 06:04:00;;;;;;;;;;;0.00;99.90;;;;;;5073592;28;20330;-68
2022/12/02 06:06:29;;;;;;;;;;;0.00;99.90;;;;;;5076708;28;19913;-68
2022/12/02 06:08:55;;;;;;;;;;;0.00;99.90;;;;;;5072062;28;19905;-68
2022/12/02 06:11:23;;;;;;;;;;;0.10;99.90;;;;;;5071865;28;20271;-69
2022/12/02 06:13:49;;;;;;;;;;;0.10;99.90;;;;;;5072046;28;19915;-70
2022/12/02 06:16:19;;;;;;;;;;;0.10;99.90;;;;;;5073795;28;20288;-68
2022/12/02 06:18:44;;;;;;;;;;;0.10;99.90;;;;;;5077813;28;19908;-69
2022/12/02 06:21:12;;;;;;;;;;;0.10;99.90;;;;;;5055796;28;19917;-68
2022/12/02 06:23:41;;;;;;;;;;;0.10;99.90;;;;;;5071540;28;19912;-69
2022/12/02 06:26:07;;;;;;;;;;;0.20;99.90;;;;;;5073399;28;19943;-65
2022/12/02 06:28:36;;;;;;;;;;;0.20;99.90;;;;;;5067301;28;20210;-68
2022/12/02 06:31:09;;;;;;;;;;;0.20;99.90;;;;;;5071741;28;19912;-68
2022/12/02 06:33:36;;;;;;;;;;;0.20;99.90;;;;;;5074187;28;19908;-68
2022/12/02 06:36:03;;;;;;;;;;;0.20;99.90;;;;;;5078194;28;20404;-67
2022/12/02 06:38:34;;;;;;;;;;;0.20;99.90;;;;;;5070929;28;19905;-68
2022/12/02 06:41:01;;;;;;;;;;;0.20;99.90;;;;;;5071232;28;20311;-68
2022/12/02 06:43:30;;;;;;;;;;;0.20;99.90;;;;;;5063714;28;19956;-69
2022/12/02 06:45:56;;;;;;;;;;;0.20;99.90;;;;;;5070937;28;20369;-71
2022/12/02 06:48:25;;;;;;;;;;;0.20;99.90;;;;;;5071248;28;19954;-68
2022/12/02 06:50:50;;;;;;;;;;;0.20;99.90;;;;;;5070809;28;19952;-69
2022/12/02 06:53:22;;;;;;;;;;;0.20;99.90;;;;;;5070923;28;19966;-72
2022/12/02 06:55:48;;;;;;;;;;;0.20;99.90;;;;;;5062964;28;20359;-71
2022/12/02 07:00:40;;;;;;;;;;;0.30;99.90;;;;;;5094617;22;19927;-59
2022/12/02 07:03:18;;;;;;;;;;;0.30;99.90;;;;;;5070484;28;19905;-58
2022/12/02 07:05:43;;;;;;;;;;;0.30;99.90;;;;;;5071699;28;19935;-59
2022/12/02 07:08:09;;;;;;;;;;;0.30;99.90;;;;;;5071047;28;20412;-59
2022/12/02 07:10:35;;;;;;;;;;;0.30;99.90;;;;;;5070505;28;19932;-59
2022/12/02 07:13:03;;;;;;;;;;;0.30;99.90;;;;;;5070718;28;19927;-58
2022/12/02 07:15:32;;;;;;;;;;;0.30;99.90;;;;;;5070502;28;20038;-59
2022/12/02 07:18:09;;;;;;;;;;;0.30;99.90;;;;;;5047153;28;20063;-60
2022/12/02 07:20:36;;;;;;;;;;;0.30;99.90;;;;;;5071125;28;19960;-58
2022/12/02 07:23:10;;;;;;;;;;;0.40;99.90;;;;;;5070566;28;20186;-58
2022/12/02 07:25:43;;;;;;;;;;;0.40;99.90;;;;;;5071957;28;19951;-57
2022/12/02 07:28:20;;;;;;;;;;;0.40;99.90;;;;;;5071290;28;20395;-57
2022/12/02 07:30:49;;;;;;;;;;;0.40;99.90;;;;;;5069348;28;19908;-58
2022/12/02 07:33:14;;;;;;;;;;;0.30;99.90;;;;;;5053560;28;19913;-59
2022/12/02 07:35:40;;;;;;;;;;;0.30;99.90;;;;;;5070972;28;19927;-59
2022/12/02 07:38:05;;;;;;;;;;;0.40;99.90;;;;;;5070349;28;20018;-58
2022/12/02 07:40:31;;;;;;;;;;;0.40;99.90;;;;;;5070773;28;19911;-58
2022/12/02 07:42:56;;;;;;;;;;;0.40;99.90;;;;;;5061759;28;20317;-59
2022/12/02 07:45:22;;;;;;;;;;;0.40;99.90;;;;;;5070514;28;20340;-59
2022/12/02 07:47:47;;;;;;;;;;;0.40;99.90;;;;;;5069835;28;19908;-59
2022/12/02 07:50:14;;;;;;;;;;;0.40;99.90;;;;;;5070345;28;19924;-55
2022/12/02 07:52:40;;;;;;;;;;;0.40;99.90;;;;;;5064472;28;19923;-59
2022/12/02 07:55:05;;;;;;;;;;;0.40;99.90;;;;;;5071512;28;19912;-55
2022/12/02 07:57:31;;;;;;;;;;;0.40;99.90;;;;;;5070584;28;19934;-59
2022/12/02 07:59:56;;;;;;;;;;;0.40;99.90;;;;;;5070057;28;19912;-59
2022/12/02 08:02:22;;;;;;;;;;;0.40;99.90;;;;;;5069843;28;20418;-59
2022/12/02 08:04:47;;;;;;;;;;;0.40;99.90;;;;;;5069277;28;20007;-60
2022/12/02 08:07:13;;;;;;;;;;;0.40;99.90;;;;;;5070060;28;19948;-59
2022/12/02 08:09:38;;;;;;;;;;;0.40;99.90;;;;;;5069615;28;19908;-60
2022/12/02 08:12:04;;;;;;;;;;;0.40;99.90;;;;;;5069581;28;19915;-58
2022/12/02 08:14:29;;;;;;;;;;;0.40;99.90;;;;;;5069782;28;19931;-58
2022/12/02 08:16:55;;;;;;;;;;;0.40;99.90;;;;;;5069648;28;19912;-58
2022/12/02 08:19:20;;;;;;;;;;;0.30;99.90;;;;;;5069841;28;19911;-58
2022/12/02 08:21:46;;;;;;;;;;;0.40;99.90;;;;;;5069263;28;19911;-56
2022/12/02 08:24:11;;;;;;;;;;;0.40;99.90;;;;;;5069711;28;19958;-56
2022/12/02 08:26:36;;;;;;;;;;;0.40;99.90;;;;;;5069558;28;20411;-59
2022/12/02 08:29:02;;;;;;;;;;;0.40;99.90;;;;;;5069560;28;19911;-58
2022/12/02 08:31:28;;;;;;;;;;;0.40;99.90;;;;;;5069799;28;19905;-58
2022/12/02 08:33:53;;;;;;;;;;;0.40;99.90;;;;;;5059375;28;19909;-58
2022/12/02 08:36:19;;;;;;;;;;;0.40;99.90;;;;;;5065138;28;19909;-57
2022/12/02 08:38:44;;;;;;;;;;;0.40;99.90;;;;;;5069031;28;20050;-56
2022/12/02 08:41:10;;;;;;;;;;;0.40;99.90;;;;;;5071389;28;19920;-57
2022/12/02 08:43:36;;;;;;;;;;;0.50;99.90;;;;;;5073699;28;19905;-59
2022/12/02 08:46:02;;;;;;;;;;;0.50;99.90;;;;;;5069512;28;20272;-60
2022/12/02 08:48:27;;;;;;;;;;;0.50;99.90;;;;;;5069289;28;19919;-58
2022/12/02 08:50:53;;;;;;;;;;;0.60;99.90;;;;;;5068978;28;20544;-58
2022/12/02 08:53:19;;;;;;;;;;;0.60;99.90;;;;;;5059304;28;20684;-58
2022/12/02 08:55:45;;;;;;;;;;;0.60;99.90;;;;;;5069236;28;19995;-59
2022/12/02 08:58:10;;;;;;;;;;;0.60;99.90;;;;;;5069841;28;19912;-61
2022/12/02 09:00:36;;;;;;;;;;;0.70;99.90;;;;;;5069051;28;20015;-59
2022/12/02 09:03:01;;;;;;;;;;;0.70;99.90;;;;;;5069022;28;20280;-56
2022/12/02 09:05:27;;;;;;;;;;;0.70;99.90;;;;;;5073376;28;19908;-55
2022/12/02 09:07:52;;;;;;;;;;;0.70;99.90;;;;;;5068980;28;20361;-58
2022/12/02 09:10:18;;;;;;;;;;;0.70;99.90;;;;;;5069180;28;19908;-59
2022/12/02 09:12:43;;;;;;;;;;;0.80;99.90;;;;;;5068836;28;19950;-58
2022/12/02 09:15:09;;;;;;;;;;;0.70;99.90;;;;;;5068854;28;19920;-57
2022/12/02 09:17:34;;;;;;;;;;;0.70;99.90;;;;;;5068659;28;20561;-60
2022/12/02 09:20:00;;;;;;;;;;;0.70;99.90;;;;;;5069783;28;19904;-57
2022/12/02 09:22:26;;;;;;;;;;;0.80;99.90;;;;;;5068981;28;19904;-58
2022/12/02 09:24:51;;;;;;;;;;;0.80;99.90;;;;;;5069067;28;20280;-60
2022/12/02 09:27:17;;;;;;;;;;;0.80;99.90;;;;;;5069416;28;19905;-59
2022/12/02 09:29:42;;;;;;;;;;;0.80;99.90;;;;;;5068445;28;19915;-57
2022/12/02 09:32:07;;;;;;;;;;;0.70;99.90;;;;;;5069097;28;19909;-59
2022/12/02 09:34:33;;;;;;;;;;;0.80;99.90;;;;;;5073302;28;19912;-59
2022/12/02 09:36:58;;;;;;;;;;;0.70;99.90;;;;;;5072617;28;19916;-58
2022/12/02 09:39:24;;;;;;;;;;;0.80;99.90;;;;;;5066133;28;20468;-59
2022/12/02 09:41:49;;;;;;;;;;;0.80;99.90;;;;;;5065406;28;19912;-58
2022/12/02 09:44:15;;;;;;;;;;;0.80;99.90;;;;;;5073169;28;19998;-59
2022/12/02 09:46:40;;;;;;;;;;;0.80;99.90;;;;;;5072905;28;19904;-58
2022/12/02 09:49:06;;;;;;;;;;;0.80;99.90;;;;;;5072530;28;19905;-58
2022/12/02 09:51:32;;;;;;;;;;;0.80;99.90;;;;;;5072021;28;19995;-60
2022/12/02 09:53:58;;;;;;;;;;;0.80;99.90;;;;;;5072696;28;19924;-57
2022/12/02 09:56:23;;;;;;;;;;;0.90;99.90;;;;;;5072679;28;19908;-57
2022/12/02 09:58:50;;;;;;;;;;;0.80;99.90;;;;;;5072163;28;20010;-57
2022/12/02 10:01:16;;;;;;;;;;;0.80;99.90;;;;;;5064152;28;19954;-58
2022/12/02 10:03:43;;;;;;;;;;;0.80;99.90;;;;;;5072439;28;19915;-57
2022/12/02 10:06:14;;;;;;;;;;;0.80;99.90;;;;;;5072181;28;20430;-57
2022/12/02 10:08:39;;;;;;;;;;;0.80;99.90;;;;;;5062947;28;19908;-58
2022/12/02 10:11:05;;;;;;;;;;;0.80;99.90;;;;;;5072271;28;19931;-54
2022/12/02 10:13:32;;;;;;;;;;;0.80;99.90;;;;;;5072358;28;19954;-57
2022/12/02 10:15:58;;;;;;;;;;;0.90;99.90;;;;;;5071959;28;19908;-58
2022/12/02 10:18:28;;;;;;;;;;;0.90;99.90;;;;;;5072796;28;19904;-59
2022/12/02 10:20:53;;;;;;;;;;;0.90;99.90;;;;;;5071986;28;19908;-55
2022/12/02 10:23:20;;;;;;;;;;;0.90;99.90;;;;;;5062537;28;19908;-60
2022/12/02 10:26:09;;;;;;;;;;;0.90;99.90;;;;;;5058866;28;19912;-59
2022/12/02 10:28:36;;;;;;;;;;;0.90;99.90;;;;;;5066204;28;19915;-56
2022/12/02 10:31:07;;;;;;;;;;;0.90;99.90;;;;;;5071426;28;19909;-55
2022/12/02 10:33:34;;;;;;;;;;;0.90;99.90;;;;;;5071431;28;19967;-58
2022/12/02 10:36:00;;;;;;;;;;;0.90;99.90;;;;;;5062424;28;19916;-59
2022/12/02 10:38:29;;;;;;;;;;;0.90;99.90;;;;;;5071553;28;19934;-56
2022/12/02 10:41:13;;;;;;;;;;;0.90;99.90;;;;;;5062230;28;19905;-59
2022/12/02 10:43:39;;;;;;;;;;;1.00;99.90;;;;;;5070565;28;20186;-58
2022/12/02 10:46:04;;;;;;;;;;;1.00;99.90;;;;;;5071933;28;20261;-57
2022/12/02 10:48:30;;;;;;;;;;;1.00;99.90;;;;;;5071983;28;20372;-59
2022/12/02 10:50:55;;;;;;;;;;;1.10;99.90;;;;;;5071767;28;19911;-58
2022/12/02 10:53:24;;;;;;;;;;;1.00;99.90;;;;;;5071206;28;20027;-58
2022/12/02 10:55:49;;;;;;;;;;;1.00;99.90;;;;;;5071624;28;19905;-60
2022/12/02 10:58:17;;;;;;;;;;;1.00;99.90;;;;;;5071506;28;19995;-59
2022/12/02 11:00:43;;;;;;;;;;;1.10;99.90;;;;;;5069369;28;19913;-59
2022/12/02 11:03:08;;;;;;;;;;;1.10;99.90;;;;;;5071135;28;19908;-58
2022/12/02 11:05:34;;;;;;;;;;;1.10;99.90;;;;;;5070811;28;19962;-59
2022/12/02 11:07:59;;;;;;;;;;;1.10;99.90;;;;;;5071089;28;20006;-60
2022/12/02 11:10:27;;;;;;;;;;;1.10;99.90;;;;;;5071406;28;20007;-60
2022/12/02 11:12:53;;;;;;;;;;;1.00;99.90;;;;;;5070581;28;19919;-60
2022/12/02 11:15:33;;;;;;;;;;;1.10;99.90;;;;;;5071255;28;20006;-60
2022/12/02 11:17:58;;;;;;;;;;;1.10;99.90;;;;;;5070753;28;19908;-60
2022/12/02 11:20:33;;;;;;;;;;;1.10;99.90;;;;;;5070980;28;19912;-59
2022/12/02 11:22:58;;;;;;;;;;;1.00;99.90;;;;;;5070508;28;20364;-59
2022/12/02 11:25:42;;;;;;;;;;;1.00;99.90;;;;;;5071232;28;19910;-60
2022/12/02 11:28:16;;;;;;;;;;;1.00;99.90;;;;;;5070718;28;20003;-59
2022/12/02 11:30:43;;;;;;;;;;;1.10;99.90;;;;;;5071039;28;19993;-58
2022/12/02 11:33:12;;;;;;;;;;;1.10;99.90;;;;;;5070536;28;20068;-57
2022/12/02 11:35:56;;;;;;;;;;;1.10;99.90;;;;;;5070741;28;20051;-58
2022/12/02 11:38:24;;;;;;;;;;;1.10;99.90;;;;;;5064885;28;19991;-60
2022/12/02 11:40:49;;;;;;;;;;;1.10;99.90;;;;;;5070817;28;19971;-59
2022/12/02 11:43:33;;;;;;;;;;;1.20;99.90;;;;;;5070151;28;20002;-59
2022/12/02 11:45:59;;;;;;;;;;;1.10;99.90;;;;;;5068261;28;19904;-60
2022/12/02 11:48:24;;;;;;;;;;;1.10;99.90;;;;;;5061403;28;20375;-59
2022/12/02 11:50:50;;;;;;;;;;;1.10;99.90;;;;;;5069828;28;19908;-59
2022/12/02 11:53:22;;;;;;;;;;;1.10;99.90;;;;;;5070251;28;19995;-60
2022/12/02 11:55:49;;;;;;;;;;;1.10;99.90;;;;;;5069492;28;19950;-60
2022/12/02 11:58:20;;;;;;;;;;;1.00;99.90;;;;;;5070438;28;19909;-58
2022/12/02 12:01:03;;;;;;;;;;;1.00;99.90;;;;;;5069960;28;20046;-59
2022/12/02 12:03:28;;;;;;;;;;;1.00;99.90;;;;;;5063141;28;20364;-58
2022/12/02 12:06:05;;;;;;;;;;;1.00;99.90;;;;;;5069790;28;19955;-57
2022/12/02 12:08:30;;;;;;;;;;;1.00;99.90;;;;;;5070043;28;19904;-57
2022/12/02 12:11:14;;;;;;;;;;;1.00;99.90;;;;;;5069392;28;19909;-60
2022/12/02 12:13:58;;;;;;;;;;;1.00;99.90;;;;;;5069728;28;19912;-59
2022/12/02 12:16:24;;;;;;;;;;;1.10;99.90;;;;;;5068888;28;19908;-58
2022/12/02 12:18:50;;;;;;;;;;;1.10;99.90;;;;;;5069665;28;20406;-57
2022/12/02 12:21:46;;;;;;;;;;;1.10;99.90;;;;;;5069448;28;19911;-58
2022/12/02 12:24:18;;;;;;;;;;;1.10;99.90;;;;;;5048868;28;19923;-60
2022/12/02 12:26:48;;;;;;;;;;;1.10;99.90;;;;;;5065450;28;19916;-59
2022/12/02 12:29:14;;;;;;;;;;;1.10;99.90;;;;;;5069360;28;19912;-59
2022/12/02 12:31:39;;;;;;;;;;;1.10;99.90;;;;;;5069493;28;19908;-60
2022/12/02 12:34:05;;;;;;;;;;;1.00;99.90;;;;;;5069078;28;19912;-60
2022/12/02 12:36:31;;;;;;;;;;;1.10;99.90;;;;;;5069116;28;19908;-61
2022/12/02 12:38:56;;;;;;;;;;;1.10;99.90;;;;;;5060260;28;19909;-60
2022/12/02 12:41:22;;;;;;;;;;;1.10;99.90;;;;;;5069603;28;19904;-58
2022/12/02 12:43:49;;;;;;;;;;;1.10;99.90;;;;;;5069498;28;20309;-60
2022/12/02 12:46:14;;;;;;;;;;;1.10;99.90;;;;;;5069844;28;20280;-59
2022/12/02 12:48:40;;;;;;;;;;;1.10;99.90;;;;;;5068935;28;19908;-59
2022/12/02 12:51:05;;;;;;;;;;;1.10;99.90;;;;;;5069624;28;19904;-59
2022/12/02 12:53:31;;;;;;;;;;;1.10;99.90;;;;;;5068816;28;19919;-58
2022/12/02 12:55:56;;;;;;;;;;;1.10;99.90;;;;;;5069326;28;20378;-59
2022/12/02 12:58:22;;;;;;;;;;;1.10;99.90;;;;;;5069092;28;19908;-59
2022/12/02 13:00:48;;;;;;;;;;;1.10;99.90;;;;;;5068860;28;19962;-59
2022/12/02 13:03:13;;;;;;;;;;;1.10;99.90;;;;;;5068719;28;19915;-59
2022/12/02 13:05:39;;;;;;;;;;;1.10;99.90;;;;;;5069055;28;20505;-60
2022/12/02 13:08:04;;;;;;;;;;;1.20;99.90;;;;;;5067559;28;19905;-59
2022/12/02 13:10:30;;;;;;;;;;;1.10;99.90;;;;;;5072367;28;19948;-61
2022/12/02 13:12:55;;;;;;;;;;;1.10;99.90;;;;;;5072633;28;20303;-60
2022/12/02 13:15:21;;;;;;;;;;;1.10;99.90;;;;;;5072298;28;20000;-61
2022/12/02 13:17:46;;;;;;;;;;;1.20;99.90;;;;;;5108808;22;19928;-64
2022/12/02 13:20:13;;;;;;;;;;;1.20;99.90;;;;;;5093257;28;19908;-63
2022/12/02 13:22:39;;;;;;;;;;;1.10;99.90;;;;;;5092869;28;20238;-64
2022/12/02 13:25:04;;;;;;;;;;;1.10;99.90;;;;;;5093448;28;19998;-65
2022/12/02 13:27:30;;;;;;;;;;;1.10;99.90;;;;;;5092944;28;19915;-64
2022/12/02 13:29:55;;;;;;;;;;;1.10;99.90;;;;;;5093169;28;19904;-65
2022/12/02 13:32:22;;;;;;;;;;;1.10;99.90;;;;;;5093174;28;19920;-64
2022/12/02 13:34:47;;;;;;;;;;;1.10;99.90;;;;;;5092706;28;20455;-64
2022/12/02 13:37:12;;;;;;;;;;;1.10;99.90;;;;;;5093001;28;19904;-64
2022/12/02 13:39:38;;;;;;;;;;;1.10;99.90;;;;;;5093092;28;19908;-64
2022/12/02 13:42:03;;;;;;;;;;;1.10;99.90;;;;;;5092435;28;20027;-64
2022/12/02 13:44:29;;;;;;;;;;;1.10;99.90;;;;;;5093652;28;20405;-64
2022/12/02 13:46:54;;;;;;;;;;;1.20;99.90;;;;;;5092947;28;20291;-64
2022/12/02 13:49:20;;;;;;;;;;;1.10;99.90;;;;;;5073523;28;19912;-64
2022/12/02 13:51:45;;;;;;;;;;;1.20;99.90;;;;;;5092587;28;19904;-64
2022/12/02 13:54:11;;;;;;;;;;;1.20;99.90;;;;;;5092236;28;19985;-64
2022/12/02 13:56:36;;;;;;;;;;;1.10;99.90;;;;;;5092733;28;20279;-64
2022/12/02 13:59:01;;;;;;;;;;;1.10;99.90;;;;;;5092666;28;20007;-64
2022/12/02 14:01:27;;;;;;;;;;;1.10;99.90;;;;;;5092723;28;19915;-65
2022/12/02 14:03:52;;;;;;;;;;;1.20;99.90;;;;;;5092412;28;19943;-65
2022/12/02 14:06:18;;;;;;;;;;;1.20;99.90;;;;;;5082486;28;19908;-65
2022/12/02 14:08:43;;;;;;;;;;;1.20;99.90;;;;;;5092773;28;19908;-65
2022/12/02 14:11:09;;;;;;;;;;;1.20;99.90;;;;;;5092253;28;19912;-65
2022/12/02 14:13:34;;;;;;;;;;;1.20;99.90;;;;;;5092408;28;19997;-64
2022/12/02 14:16:00;;;;;;;;;;;1.20;99.90;;;;;;5091754;28;19918;-65
2022/12/02 14:18:25;;;;;;;;;;;1.20;99.90;;;;;;5092664;28;19911;-65
2022/12/02 14:20:51;;;;;;;;;;;1.20;99.90;;;;;;5091462;28;19995;-66
2022/12/02 14:23:16;;;;;;;;;;;1.20;99.90;;;;;;5092167;28;20261;-64
2022/12/02 14:25:42;;;;;;;;;;;1.20;99.90;;;;;;5078871;28;19907;-64
2022/12/02 14:28:07;;;;;;;;;;;1.20;99.90;;;;;;5092271;28;19922;-65
2022/12/02 14:30:33;;;;;;;;;;;1.20;99.90;;;;;;5091042;28;19911;-65